Tanit — 2DYL7 — position and weather

sailwx.info

Track history (hours):
 
Tides and Currents Weather Stations Pressure Air Temp Water Temp Dewpoint Dewpoint Depression Visibility Wind Speed Wind Dir Waves Ship Positions

Tanit

Last reported at 2015-Jul-01 15:14 UTC. Time now 2015-Jul-01 21:11 UTC.
Position N 38°52' E 001°19'.

Length 46 m; draft 2.8 m.

Type: Pleasure craft. MMSI: 235083004.

Date/timePositionNaut miles runAvg speedWind from/ knotsBaromVisibWave heightAir tempDewpointWater temp
2015-Jul-01 15:14N 38°52' E 001°19'0 0.0
2015-Jul-01 14:31N 38°52' E 001°19'0 0.0
2015-Jul-01 12:24N 38°52' E 001°19'0 0.0
2015-Jul-01 11:18N 38°52' E 001°19'0 0.0
2015-Jul-01 01:26N 38°52' E 001°19'0 0.0
2015-Jun-30 17:13N 38°52' E 001°19'0 0.0
2015-Jun-30 16:09N 38°52' E 001°19'0 0.0
2015-Jun-30 15:18N 38°52' E 001°19'4 5.2
2015-Jun-30 14:33N 38°49' E 001°23'2 0.1
2015-Jun-29 18:33N 38°48' E 001°25'7 0.3
2015-Jun-28 18:29N 38°55' E 001°28'7 6.6
2015-Jun-28 17:26N 38°48' E 001°25'3 2.7
2015-Jun-28 16:28N 38°46' E 001°26'0 0.0
2015-Jun-28 15:28N 38°46' E 001°26'0 0.0
2015-Jun-28 14:04N 38°46' E 001°26'0 0.0
2015-Jun-28 10:25N 38°46' E 001°26'0 0.0
2015-Jun-28 08:13N 38°46' E 001°26'4 4.3
2015-Jun-28 07:21N 38°49' E 001°26'6 6.3
2015-Jun-28 06:27N 38°55' E 001°28'0 0.0
2015-Jun-28 05:33N 38°55' E 001°28'1 0.1
2015-Jun-27 19:03N 38°54' E 001°28'611.7
2015-Jun-27 18:33N 38°48' E 001°25'3 1.3
2015-Jun-27 16:03N 38°45' E 001°26'0 0.1
2015-Jun-27 08:10N 38°45' E 001°25'4 5.6
2015-Jun-27 07:24N 38°49' E 001°26'1 0.1
2015-Jun-26 17:20N 38°48' E 001°27'3 1.8
2015-Jun-26 15:33N 38°45' E 001°27'0 0.0
2015-Jun-26 14:15N 38°45' E 001°27'0 0.0
2015-Jun-26 13:21N 38°45' E 001°27'0 0.0
2015-Jun-26 12:33N 38°45' E 001°27'7 0.4
2015-Jun-25 18:32N 38°53' E 001°27'7 0.8
2015-Jun-25 10:23N 38°46' E 001°26'  
Track history (hours):
 
Tides and Currents Weather Stations Pressure Air Temp Water Temp Dewpoint Dewpoint Depression Visibility Wind Speed Wind Dir Waves Ship Positions

Tanit

Last reported at 2015-Jul-01 15:14 UTC. Time now 2015-Jul-01 21:11 UTC.
Position N 38°52' E 001°19'.

Length 46 m; draft 2.8 m.

Type: Pleasure craft. MMSI: 235083004.

Date/timePositionNaut miles runAvg speedWind from/ knotsBaromVisibWave heightAir tempDewpointWater temp
2015-Jul-01 15:14N 38°52' E 001°19'0 0.0
2015-Jul-01 14:31N 38°52' E 001°19'0 0.0
2015-Jul-01 12:24N 38°52' E 001°19'0 0.0
2015-Jul-01 11:18N 38°52' E 001°19'0 0.0
2015-Jul-01 01:26N 38°52' E 001°19'0 0.0
2015-Jun-30 17:13N 38°52' E 001°19'0 0.0
2015-Jun-30 16:09N 38°52' E 001°19'0 0.0
2015-Jun-30 15:18N 38°52' E 001°19'4 5.2
2015-Jun-30 14:33N 38°49' E 001°23'2 0.1
2015-Jun-29 18:33N 38°48' E 001°25'7 0.3
2015-Jun-28 18:29N 38°55' E 001°28'7 6.6
2015-Jun-28 17:26N 38°48' E 001°25'3 2.7
2015-Jun-28 16:28N 38°46' E 001°26'0 0.0
2015-Jun-28 15:28N 38°46' E 001°26'0 0.0
2015-Jun-28 14:04N 38°46' E 001°26'0 0.0
2015-Jun-28 10:25N 38°46' E 001°26'0 0.0
2015-Jun-28 08:13N 38°46' E 001°26'4 4.3
2015-Jun-28 07:21N 38°49' E 001°26'6 6.3
2015-Jun-28 06:27N 38°55' E 001°28'0 0.0
2015-Jun-28 05:33N 38°55' E 001°28'1 0.1
2015-Jun-27 19:03N 38°54' E 001°28'611.7
2015-Jun-27 18:33N 38°48' E 001°25'3 1.3
2015-Jun-27 16:03N 38°45' E 001°26'0 0.1
2015-Jun-27 08:10N 38°45' E 001°25'4 5.6
2015-Jun-27 07:24N 38°49' E 001°26'1 0.1
2015-Jun-26 17:20N 38°48' E 001°27'3 1.8
2015-Jun-26 15:33N 38°45' E 001°27'0 0.0
2015-Jun-26 14:15N 38°45' E 001°27'0 0.0
2015-Jun-26 13:21N 38°45' E 001°27'0 0.0
2015-Jun-26 12:33N 38°45' E 001°27'7 0.4
2015-Jun-25 18:32N 38°53' E 001°27'7 0.8
2015-Jun-25 10:23N 38°46' E 001°26'  

Dump ship's entire track history